createdAt,value
2018-08-28T00:00:28.678Z,59.00
2018-08-28T00:02:56.879Z,59.24
2018-08-28T00:05:25.068Z,59.30
2018-08-28T00:07:53.271Z,58.88
2018-08-28T00:10:21.463Z,59.09
2018-08-28T00:12:49.755Z,59.15
2018-08-28T00:15:17.962Z,59.46
2018-08-28T00:17:46.159Z,59.35
2018-08-28T00:20:14.356Z,59.23
2018-08-28T00:22:42.573Z,59.27
2018-08-28T00:25:10.775Z,59.82
2018-08-28T00:27:38.990Z,59.60
2018-08-28T00:30:07.191Z,59.44
2018-08-28T00:32:35.380Z,59.80
2018-08-28T00:35:03.614Z,59.87
2018-08-28T00:37:31.814Z,60.18
2018-08-28T00:40:00.004Z,60.04
2018-08-28T00:42:28.183Z,60.58
2018-08-28T00:44:56.379Z,60.96
2018-08-28T00:47:24.583Z,61.05
2018-08-28T00:49:52.786Z,61.40
2018-08-28T00:52:21.045Z,61.52
2018-08-28T00:54:49.211Z,61.96
2018-08-28T00:57:17.399Z,62.05
2018-08-28T00:59:45.627Z,61.96
2018-08-28T01:02:13.830Z,62.56
2018-08-28T01:04:42.029Z,62.56
2018-08-28T01:07:10.260Z,62.78
2018-08-28T01:09:38.463Z,63.04
2018-08-28T01:12:06.708Z,63.06
2018-08-28T01:14:34.958Z,63.05
2018-08-28T01:17:03.105Z,63.08
2018-08-28T01:19:31.307Z,63.34
2018-08-28T01:21:59.558Z,63.57
2018-08-28T01:24:27.734Z,63.70
2018-08-28T01:26:55.960Z,63.96
2018-08-28T01:29:24.152Z,64.36
2018-08-28T01:31:52.340Z,64.42
2018-08-28T01:34:20.535Z,64.68
2018-08-28T01:36:48.748Z,65.08
2018-08-28T01:39:16.942Z,65.28
2018-08-28T01:41:45.114Z,65.62
2018-08-28T01:44:13.290Z,65.82
2018-08-28T01:46:41.476Z,65.87
2018-08-28T01:49:09.661Z,65.86
2018-08-28T01:51:37.844Z,65.98
2018-08-28T01:54:06.075Z,66.40
2018-08-28T01:56:34.256Z,66.65
2018-08-28T01:59:02.440Z,67.02
2018-08-28T02:01:30.656Z,67.06
2018-08-28T02:03:58.838Z,67.23
2018-08-28T02:06:27.015Z,67.39
2018-08-28T02:08:55.200Z,67.54
2018-08-28T02:11:23.387Z,67.66
2018-08-28T02:13:51.575Z,67.72
2018-08-28T02:16:19.763Z,67.82
2018-08-28T02:18:47.965Z,67.94
2018-08-28T02:21:16.165Z,68.08
2018-08-28T02:23:44.342Z,68.08
2018-08-28T02:26:12.563Z,68.13
2018-08-28T02:28:40.763Z,68.30
2018-08-28T02:31:08.936Z,68.46
2018-08-28T02:33:37.347Z,68.23
2018-08-28T02:36:05.444Z,68.15
2018-08-28T02:38:33.635Z,68.52
2018-08-28T02:41:01.839Z,68.46
2018-08-28T02:43:30.029Z,68.61
2018-08-28T02:45:58.221Z,68.76
2018-08-28T02:48:26.409Z,68.86
2018-08-28T02:50:54.596Z,69.02
2018-08-28T02:53:22.775Z,68.89
2018-08-28T02:55:50.960Z,69.01
2018-08-28T02:58:19.147Z,68.85
2018-08-28T03:00:47.345Z,68.93
2018-08-28T03:03:15.512Z,69.19
2018-08-28T03:05:43.721Z,68.96
2018-08-28T03:08:11.911Z,69.18
2018-08-28T03:10:40.081Z,69.49
2018-08-28T03:13:08.260Z,69.36
2018-08-28T03:15:36.719Z,69.72
2018-08-28T03:18:04.828Z,69.87
2018-08-28T03:20:33.004Z,70.32
2018-08-28T03:23:01.189Z,69.91
2018-08-28T03:25:29.359Z,69.71
2018-08-28T03:27:57.564Z,70.10
2018-08-28T03:30:25.764Z,70.22
2018-08-28T03:32:53.945Z,70.35
2018-08-28T03:35:22.179Z,70.32
2018-08-28T03:37:50.373Z,70.58
2018-08-28T03:40:18.562Z,70.71
2018-08-28T03:42:46.756Z,70.95
2018-08-28T03:45:14.939Z,71.02
2018-08-28T03:47:43.156Z,71.06
2018-08-28T03:50:11.367Z,71.12
2018-08-28T03:52:39.558Z,71.09
2018-08-28T03:55:07.753Z,71.35
2018-08-28T03:57:35.932Z,71.37
2018-08-28T04:00:04.160Z,71.43
2018-08-28T04:02:32.330Z,71.54
2018-08-28T04:05:00.543Z,71.78
2018-08-28T04:07:28.730Z,71.96
2018-08-28T04:09:56.915Z,71.96
2018-08-28T04:12:25.171Z,71.64
2018-08-28T04:14:53.384Z,71.55
2018-08-28T04:17:21.567Z,71.54
2018-08-28T04:19:49.776Z,71.45
2018-08-28T04:22:18.005Z,71.61
2018-08-28T04:24:50.443Z,71.46
2018-08-28T04:27:18.635Z,71.65
2018-08-28T04:29:46.832Z,71.75
2018-08-28T04:32:15.015Z,71.66
2018-08-28T04:34:43.209Z,72.07
2018-08-28T04:37:11.408Z,72.35
2018-08-28T04:39:39.619Z,72.31
2018-08-28T04:42:07.792Z,72.06
2018-08-28T04:44:35.967Z,71.85
2018-08-28T04:47:04.164Z,71.85
2018-08-28T04:49:32.406Z,71.66
2018-08-28T04:52:00.606Z,72.28
2018-08-28T04:54:28.788Z,71.95
2018-08-28T04:56:56.997Z,72.03
2018-08-28T04:59:25.176Z,71.86
2018-08-28T05:01:53.379Z,71.76
2018-08-28T05:04:21.551Z,71.73
2018-08-28T05:06:49.735Z,71.85
2018-08-28T05:09:17.910Z,71.85
2018-08-28T05:11:46.128Z,71.68
2018-08-28T05:14:14.288Z,71.84
2018-08-28T05:16:42.472Z,71.82
2018-08-28T05:19:10.694Z,71.68
2018-08-28T05:21:38.859Z,71.57
2018-08-28T05:24:07.056Z,71.70
2018-08-28T05:26:35.248Z,71.67
2018-08-28T05:29:03.452Z,71.58
2018-08-28T05:31:31.730Z,71.66
2018-08-28T05:33:59.933Z,71.64
2018-08-28T05:36:28.156Z,71.68
2018-08-28T05:38:56.373Z,71.68
2018-08-28T05:41:24.736Z,71.85
2018-08-28T05:43:52.934Z,71.75
2018-08-28T05:46:21.112Z,71.74
2018-08-28T05:48:49.300Z,71.81
2018-08-28T05:51:17.479Z,71.80
2018-08-28T05:53:45.664Z,71.72
2018-08-28T05:56:14.057Z,71.87
2018-08-28T05:58:42.140Z,71.94
2018-08-28T06:01:10.340Z,71.92
2018-08-28T06:03:38.512Z,71.79
2018-08-28T06:06:06.746Z,71.93
2018-08-28T06:08:34.959Z,71.90
2018-08-28T06:11:03.156Z,72.04
2018-08-28T06:13:31.479Z,71.88
2018-08-28T06:15:59.660Z,71.54
2018-08-28T06:18:27.870Z,71.52
2018-08-28T06:20:56.073Z,71.29
2018-08-28T06:23:24.257Z,71.38
2018-08-28T06:25:52.433Z,71.17
2018-08-28T06:28:20.626Z,70.97
2018-08-28T06:30:48.819Z,70.71
2018-08-28T06:33:17.149Z,70.65
2018-08-28T06:35:45.356Z,70.63
2018-08-28T06:38:13.627Z,70.62
2018-08-28T06:40:41.832Z,70.32
2018-08-28T06:43:10.264Z,70.25
2018-08-28T06:45:38.453Z,70.08
2018-08-28T06:48:06.726Z,70.30
2018-08-28T06:50:34.957Z,70.25
2018-08-28T06:53:03.169Z,70.37
2018-08-28T06:55:31.357Z,69.79
2018-08-28T06:57:59.655Z,68.54
2018-08-28T07:00:27.879Z,68.11
2018-08-28T07:02:56.063Z,67.80
2018-08-28T07:05:24.349Z,67.60
2018-08-28T07:07:52.668Z,67.42
2018-08-28T07:10:20.977Z,67.42
2018-08-28T07:12:49.096Z,67.14
2018-08-28T07:15:17.300Z,66.61
2018-08-28T07:17:45.531Z,66.19
2018-08-28T07:20:13.761Z,66.22
2018-08-28T07:22:42.076Z,65.82
2018-08-28T07:25:10.357Z,66.00
2018-08-28T07:27:38.908Z,65.23
2018-08-28T07:30:07.127Z,65.12
2018-08-28T07:32:35.565Z,65.27
2018-08-28T07:35:03.780Z,64.39
2018-08-28T07:37:32.044Z,64.32
2018-08-28T07:40:00.192Z,64.62
2018-08-28T07:42:28.395Z,63.43
2018-08-28T07:44:56.583Z,63.03
2018-08-28T07:47:24.823Z,62.75
2018-08-28T07:49:53.028Z,62.42
2018-08-28T07:52:21.223Z,61.71
2018-08-28T07:54:49.464Z,61.21
2018-08-28T07:57:17.676Z,61.49
2018-08-28T07:59:45.868Z,60.96
2018-08-28T08:02:14.336Z,61.63
2018-08-28T08:04:42.568Z,62.70
2018-08-28T08:07:11.145Z,61.36
2018-08-28T08:09:39.340Z,60.59
2018-08-28T08:12:07.548Z,60.88
2018-08-28T08:14:35.752Z,60.40
2018-08-28T08:17:03.983Z,59.03
2018-08-28T08:19:32.265Z,58.41
2018-08-28T08:22:00.666Z,58.37
2018-08-28T08:24:28.923Z,58.28
2018-08-28T08:26:57.121Z,57.85
2018-08-28T08:29:25.470Z,57.66
2018-08-28T08:31:53.709Z,56.06
2018-08-28T08:34:21.981Z,55.48
2018-08-28T08:36:50.197Z,55.25
2018-08-28T08:39:18.493Z,55.22
2018-08-28T08:41:46.693Z,55.45
2018-08-28T08:44:14.903Z,53.26
2018-08-28T08:46:43.112Z,52.66
2018-08-28T08:49:11.455Z,50.69
2018-08-28T08:51:39.656Z,51.30
2018-08-28T08:54:07.841Z,52.84
2018-08-28T08:56:36.129Z,52.43
2018-08-28T08:59:04.332Z,51.09
2018-08-28T09:01:32.531Z,51.06
2018-08-28T09:04:00.741Z,47.42
2018-08-28T09:06:28.987Z,45.70
2018-08-28T09:08:57.169Z,47.89
2018-08-28T09:11:25.416Z,46.58
2018-08-28T09:13:53.620Z,46.38
2018-08-28T09:16:22.000Z,46.61
2018-08-28T09:18:50.176Z,44.23
2018-08-28T09:21:18.373Z,44.18
2018-08-28T09:23:46.576Z,44.69
2018-08-28T09:26:14.773Z,43.04
2018-08-28T09:28:43.008Z,43.48
2018-08-28T09:31:11.436Z,44.44
2018-08-28T09:33:39.591Z,42.42
2018-08-28T09:36:07.791Z,42.46
2018-08-28T09:38:36.048Z,41.76
2018-08-28T09:41:04.198Z,41.27
2018-08-28T09:43:32.372Z,41.36
2018-08-28T09:46:00.576Z,40.17
2018-08-28T09:48:28.819Z,39.78
2018-08-28T09:50:57.061Z,38.06
2018-08-28T09:53:25.228Z,37.98
2018-08-28T09:55:53.425Z,37.63
2018-08-28T09:58:21.638Z,37.96
2018-08-28T10:00:55.048Z,38.27
2018-08-28T10:03:23.252Z,38.93
2018-08-28T10:05:51.935Z,38.68
2018-08-28T10:08:20.131Z,38.94
2018-08-28T10:10:48.435Z,38.04
2018-08-28T10:13:16.620Z,38.24
2018-08-28T10:15:44.887Z,37.11
2018-08-28T10:18:13.080Z,36.77
2018-08-28T10:20:41.282Z,37.50
2018-08-28T10:23:09.528Z,34.96
2018-08-28T10:25:37.729Z,35.99
2018-08-28T10:28:06.147Z,37.76
2018-08-28T10:30:34.340Z,38.47
2018-08-28T10:33:02.801Z,37.97
2018-08-28T10:35:30.996Z,38.71
2018-08-28T10:37:59.289Z,36.75
2018-08-28T10:40:27.419Z,36.15
2018-08-28T10:42:55.623Z,36.68
2018-08-28T10:45:23.823Z,36.48
2018-08-28T10:47:52.018Z,36.70
2018-08-28T10:50:20.259Z,37.34
2018-08-28T10:52:48.572Z,38.03
2018-08-28T10:55:16.691Z,38.04
2018-08-28T10:57:44.889Z,39.06
2018-08-28T11:00:13.096Z,36.38
2018-08-28T11:02:41.287Z,37.47
2018-08-28T11:05:09.471Z,37.10
2018-08-28T11:07:37.663Z,36.73
2018-08-28T11:10:05.843Z,37.62
2018-08-28T11:12:34.027Z,38.62
2018-08-28T11:15:02.269Z,39.16
2018-08-28T11:17:30.459Z,38.43
2018-08-28T11:19:58.655Z,37.15
2018-08-28T11:22:27.001Z,36.74
2018-08-28T11:24:55.143Z,35.43
2018-08-28T11:27:23.332Z,34.96
2018-08-28T11:29:51.554Z,35.18
2018-08-28T11:32:19.772Z,34.78
2018-08-28T11:34:47.972Z,34.52
2018-08-28T11:37:16.183Z,33.85
2018-08-28T11:39:44.369Z,33.73
2018-08-28T11:42:12.556Z,33.30
2018-08-28T11:44:40.734Z,34.08
2018-08-28T11:47:08.945Z,33.33
2018-08-28T11:49:37.120Z,34.24
2018-08-28T11:52:05.333Z,34.49
2018-08-28T11:54:33.523Z,35.40
2018-08-28T11:57:02.580Z,35.30
2018-08-28T11:59:30.800Z,37.39
2018-08-28T12:01:59.024Z,36.33
2018-08-28T12:04:27.216Z,35.89
2018-08-28T12:06:55.458Z,36.26
2018-08-28T12:09:23.663Z,37.08
2018-08-28T12:11:51.852Z,36.77
2018-08-28T12:14:20.065Z,36.71
2018-08-28T12:16:48.253Z,35.60
2018-08-28T12:19:16.456Z,35.62
2018-08-28T12:21:44.679Z,35.21
2018-08-28T12:24:13.050Z,35.30
2018-08-28T12:26:41.253Z,33.55
2018-08-28T12:29:09.400Z,34.89
2018-08-28T12:31:37.596Z,34.07
2018-08-28T12:34:05.948Z,33.87
2018-08-28T12:36:34.175Z,34.89
2018-08-28T12:39:02.411Z,33.21
2018-08-28T12:41:31.252Z,32.74
2018-08-28T12:43:59.516Z,33.92
2018-08-28T12:46:27.965Z,32.93
2018-08-28T12:48:56.289Z,33.05
2018-08-28T12:51:24.702Z,32.70
2018-08-28T12:53:52.772Z,33.27
2018-08-28T12:56:20.981Z,33.18
2018-08-28T12:58:49.196Z,32.52
2018-08-28T13:01:17.588Z,33.17
2018-08-28T13:03:46.019Z,32.29
2018-08-28T13:06:14.432Z,32.98
2018-08-28T13:08:42.753Z,32.98
2018-08-28T13:11:10.967Z,33.45
2018-08-28T13:13:39.268Z,33.61
2018-08-28T13:16:07.501Z,32.92
2018-08-28T13:18:35.775Z,34.37
2018-08-28T13:21:03.992Z,32.88
2018-08-28T13:23:32.221Z,32.98
2018-08-28T13:26:00.607Z,33.45
2018-08-28T13:28:28.676Z,32.69
2018-08-28T13:30:56.868Z,33.20
2018-08-28T13:33:25.039Z,33.59
2018-08-28T13:35:53.241Z,33.13
2018-08-28T13:38:21.519Z,32.65
2018-08-28T13:40:49.996Z,32.86
2018-08-28T13:43:18.147Z,33.38
2018-08-28T13:45:46.392Z,32.63
2018-08-28T13:48:14.744Z,33.34
2018-08-28T13:50:43.147Z,32.19
2018-08-28T13:53:11.397Z,32.86
2018-08-28T13:55:39.606Z,32.06
2018-08-28T13:58:07.787Z,33.95
2018-08-28T14:00:36.012Z,33.29
2018-08-28T14:03:04.220Z,32.87
2018-08-28T14:05:32.425Z,32.82
2018-08-28T14:08:00.611Z,32.49
2018-08-28T14:10:28.815Z,34.30
2018-08-28T14:12:56.999Z,33.00
2018-08-28T14:15:25.229Z,33.57
2018-08-28T14:17:53.421Z,33.65
2018-08-28T14:20:21.637Z,33.23
2018-08-28T14:22:49.888Z,34.04
2018-08-28T14:25:18.132Z,32.41
2018-08-28T14:27:46.733Z,33.57
2018-08-28T14:30:14.912Z,33.61
2018-08-28T14:32:43.119Z,33.96
2018-08-28T14:35:11.340Z,34.20
2018-08-28T14:37:39.561Z,34.43
2018-08-28T14:40:07.768Z,33.97
2018-08-28T14:42:36.180Z,33.25
2018-08-28T14:45:04.456Z,33.75
2018-08-28T14:47:32.686Z,33.84
2018-08-28T14:50:01.033Z,34.82
2018-08-28T14:52:29.119Z,34.56
2018-08-28T14:54:57.332Z,34.31
2018-08-28T14:57:25.557Z,34.10
2018-08-28T14:59:53.776Z,33.62
2018-08-28T15:02:22.015Z,34.33
2018-08-28T15:04:50.245Z,34.58
2018-08-28T15:07:18.506Z,34.63
2018-08-28T15:09:46.716Z,35.38
2018-08-28T15:12:14.920Z,35.10
2018-08-28T15:14:43.111Z,34.86
2018-08-28T15:17:11.552Z,33.79
2018-08-28T15:19:39.747Z,34.99
2018-08-28T15:22:07.951Z,34.83
2018-08-28T15:24:36.153Z,34.51
2018-08-28T15:27:04.367Z,35.31
2018-08-28T15:29:32.572Z,35.43
2018-08-28T15:32:00.768Z,35.05
2018-08-28T15:34:29.006Z,34.46
2018-08-28T15:36:57.175Z,35.22
2018-08-28T15:39:25.351Z,35.50
2018-08-28T15:41:53.551Z,35.39
2018-08-28T15:44:21.733Z,35.64
2018-08-28T15:46:50.116Z,35.47
2018-08-28T15:49:18.556Z,34.88
2018-08-28T15:51:46.873Z,36.11
2018-08-28T15:54:16.083Z,36.23
2018-08-28T15:56:44.420Z,35.22
2018-08-28T15:59:13.428Z,36.33
2018-08-28T16:01:41.616Z,36.00
2018-08-28T16:04:13.972Z,34.62
2018-08-28T16:06:42.219Z,36.04
2018-08-28T16:09:10.460Z,35.37
2018-08-28T16:11:38.719Z,35.83
2018-08-28T16:14:06.982Z,36.93
2018-08-28T16:16:35.295Z,37.11
2018-08-28T16:19:03.580Z,37.54
2018-08-28T16:21:35.936Z,35.62
2018-08-28T16:24:04.120Z,36.18
2018-08-28T16:26:32.306Z,36.74
2018-08-28T16:29:00.504Z,36.36
2018-08-28T16:31:28.726Z,36.18
2018-08-28T16:33:56.926Z,37.19
2018-08-28T16:36:25.212Z,36.35
2018-08-28T16:38:53.441Z,36.34
2018-08-28T16:41:21.754Z,37.62
2018-08-28T16:43:49.930Z,37.27
2018-08-28T16:46:18.230Z,37.20
2018-08-28T16:48:46.422Z,37.34
2018-08-28T16:51:14.603Z,36.89
2018-08-28T16:53:42.800Z,38.03
2018-08-28T16:56:11.004Z,38.47
2018-08-28T16:58:39.211Z,37.85
2018-08-28T17:01:07.515Z,38.07
2018-08-28T17:03:35.648Z,38.92
2018-08-28T17:06:03.853Z,38.93
2018-08-28T17:08:32.101Z,37.72
2018-08-28T17:11:00.436Z,37.43
2018-08-28T17:13:28.663Z,37.94
2018-08-28T17:15:56.863Z,38.12
2018-08-28T17:18:25.052Z,37.62
2018-08-28T17:20:53.245Z,37.91
2018-08-28T17:23:21.432Z,39.04
2018-08-28T17:25:49.641Z,38.85
2018-08-28T17:28:17.866Z,38.81
2018-08-28T17:30:46.058Z,39.93
2018-08-28T17:33:14.281Z,39.65
2018-08-28T17:35:42.456Z,39.96
2018-08-28T17:38:10.860Z,39.98
2018-08-28T17:40:39.091Z,40.90
2018-08-28T17:43:07.630Z,41.79
2018-08-28T17:45:35.879Z,42.21
2018-08-28T17:48:04.081Z,42.13
2018-08-28T17:50:32.271Z,42.62
2018-08-28T17:53:00.691Z,42.62
2018-08-28T17:55:29.951Z,42.99
2018-08-28T17:57:58.740Z,43.58
2018-08-28T18:00:27.575Z,44.37
2018-08-28T18:02:55.946Z,43.99
2018-08-28T18:05:24.275Z,43.99
2018-08-28T18:07:52.576Z,44.63
2018-08-28T18:10:21.820Z,44.63
2018-08-28T18:12:50.835Z,45.09
2018-08-28T18:15:19.045Z,45.24
2018-08-28T18:17:47.292Z,44.87
2018-08-28T18:20:15.823Z,45.16
2018-08-28T18:22:44.152Z,46.14
2018-08-28T18:25:12.360Z,46.35
2018-08-28T18:27:40.619Z,46.43
2018-08-28T18:30:09.569Z,46.28
2018-08-28T18:32:38.031Z,46.40
2018-08-28T18:35:06.347Z,46.72
2018-08-28T18:37:34.634Z,46.81
2018-08-28T18:40:03.440Z,47.13
2018-08-28T18:42:32.209Z,46.70
2018-08-28T18:45:00.373Z,46.51
2018-08-28T18:47:28.722Z,46.99
2018-08-28T18:49:57.045Z,46.32
2018-08-28T18:52:25.405Z,46.91
2018-08-28T18:54:56.000Z,46.97
2018-08-28T18:57:24.288Z,46.23
2018-08-28T18:59:52.495Z,46.45
2018-08-28T19:02:20.768Z,47.08
2018-08-28T19:04:49.092Z,46.12
2018-08-28T19:07:18.580Z,46.17
2018-08-28T19:09:47.504Z,46.11
2018-08-28T19:12:15.760Z,46.54
2018-08-28T19:14:45.595Z,47.03
2018-08-28T19:17:14.330Z,47.58
2018-08-28T19:19:42.515Z,48.26
2018-08-28T19:22:10.899Z,48.26
2018-08-28T19:24:39.831Z,48.45
2018-08-28T19:27:09.426Z,48.78
2018-08-28T19:29:38.449Z,49.38
2018-08-28T19:32:06.726Z,48.94
2018-08-28T19:34:35.017Z,49.13
2018-08-28T19:37:03.320Z,49.47
2018-08-28T19:39:33.227Z,50.22
2018-08-28T19:42:02.057Z,49.16
2018-08-28T19:44:30.284Z,49.38
2018-08-28T19:46:59.353Z,49.59
2018-08-28T19:49:28.442Z,49.18
2018-08-28T19:51:57.652Z,49.59
2018-08-28T19:54:26.687Z,49.52
2018-08-28T19:56:54.923Z,49.39
2018-08-28T19:59:23.792Z,50.27
2018-08-28T20:01:53.059Z,50.17
2018-08-28T20:04:21.762Z,50.84
2018-08-28T20:06:50.546Z,51.32
2018-08-28T20:09:19.504Z,51.39
2018-08-28T20:11:48.524Z,51.66
2018-08-28T20:14:17.003Z,51.79
2018-08-28T20:16:45.311Z,51.36
2018-08-28T20:19:14.623Z,51.54
2018-08-28T20:21:42.807Z,51.88
2018-08-28T20:24:10.987Z,50.87
2018-08-28T20:26:39.169Z,51.59
2018-08-28T20:29:07.373Z,51.54
2018-08-28T20:31:35.575Z,50.27
2018-08-28T20:34:03.797Z,50.25
2018-08-28T20:36:31.980Z,49.98
2018-08-28T20:39:00.168Z,50.13
2018-08-28T20:41:28.357Z,49.91
2018-08-28T20:43:56.535Z,50.42
2018-08-28T20:46:24.699Z,50.65
2018-08-28T20:48:52.896Z,51.23
2018-08-28T20:51:21.083Z,51.20
2018-08-28T20:53:49.296Z,51.00
2018-08-28T20:56:17.467Z,51.24
2018-08-28T20:58:45.648Z,51.13
2018-08-28T21:01:13.844Z,51.47
2018-08-28T21:03:42.359Z,51.25
2018-08-28T21:06:10.629Z,52.15
2018-08-28T21:08:38.825Z,51.53
2018-08-28T21:11:06.990Z,51.72
2018-08-28T21:13:35.322Z,51.84
2018-08-28T21:16:03.602Z,51.86
2018-08-28T21:18:31.775Z,52.04
2018-08-28T21:20:59.971Z,51.98
2018-08-28T21:23:28.160Z,52.42
2018-08-28T21:25:56.343Z,51.33
2018-08-28T21:28:25.605Z,51.65
2018-08-28T21:30:53.807Z,51.34
2018-08-28T21:33:22.008Z,51.85
2018-08-28T21:35:50.223Z,51.87
2018-08-28T21:38:18.375Z,52.41
2018-08-28T21:40:46.556Z,52.38
2018-08-28T21:43:14.747Z,52.55
2018-08-28T21:45:42.939Z,53.01
2018-08-28T21:48:11.136Z,52.97
2018-08-28T21:50:39.301Z,53.20
2018-08-28T21:53:07.496Z,53.76
2018-08-28T21:55:35.686Z,53.66
2018-08-28T21:58:03.875Z,53.33
2018-08-28T22:00:32.350Z,53.43
2018-08-28T22:03:00.569Z,53.06
2018-08-28T22:05:29.591Z,53.04
2018-08-28T22:07:59.850Z,52.94
2018-08-28T22:10:28.576Z,53.34
2018-08-28T22:12:56.778Z,53.50
2018-08-28T22:15:24.996Z,52.91
2018-08-28T22:17:53.465Z,52.30
2018-08-28T22:20:21.671Z,52.92
2018-08-28T22:22:50.224Z,52.25
2018-08-28T22:25:18.429Z,52.66
2018-08-28T22:27:46.603Z,52.19
2018-08-28T22:30:14.792Z,52.14
2018-08-28T22:32:43.024Z,52.08
2018-08-28T22:35:11.251Z,52.26
2018-08-28T22:37:39.435Z,51.72
2018-08-28T22:40:09.980Z,52.17
2018-08-28T22:42:38.212Z,52.33
2018-08-28T22:45:06.487Z,52.20
2018-08-28T22:47:34.680Z,51.85
2018-08-28T22:50:02.934Z,51.88
2018-08-28T22:52:31.362Z,51.70
2018-08-28T22:54:59.560Z,51.90
2018-08-28T22:57:27.753Z,52.53
2018-08-28T22:59:55.961Z,52.62
2018-08-28T23:02:24.159Z,52.40
2018-08-28T23:04:52.362Z,52.21
2018-08-28T23:07:20.567Z,52.30
2018-08-28T23:09:48.758Z,52.58
2018-08-28T23:12:16.987Z,52.32
2018-08-28T23:14:45.164Z,52.65
2018-08-28T23:17:13.360Z,52.98
2018-08-28T23:19:41.552Z,53.15
2018-08-28T23:22:09.740Z,53.33
2018-08-28T23:24:37.924Z,53.55
2018-08-28T23:27:06.142Z,53.81
2018-08-28T23:29:34.365Z,53.31
2018-08-28T23:32:02.588Z,53.21
2018-08-28T23:34:30.792Z,53.25
2018-08-28T23:36:59.031Z,53.09
2018-08-28T23:39:27.248Z,53.20
2018-08-28T23:41:55.443Z,52.71
2018-08-28T23:44:23.648Z,53.11
2018-08-28T23:46:51.843Z,53.03
2018-08-28T23:49:20.040Z,52.95
2018-08-28T23:51:48.260Z,53.80
2018-08-28T23:54:16.448Z,53.89
2018-08-28T23:56:44.655Z,54.03
2018-08-28T23:59:12.867Z,54.51
